Cumberland Center, ME (04021)

11:18 PM EDT on September 03, 2015 (GMT -0400)
Cumberland Center | | Change Station
CLOSE
Current Station
Personal Weather Station
Location: Cumberland, ME
Elevation: 167 ft
Nearby Weather Stations

Elev 167 ft 43.81 °N, 70.25 °W | Updated 1 minute ago

Mostly Cloudy
Mostly Cloudy
71.0 °F
Feels Like 71.0 °F
N
1.0
Wind Variable Wind from NNE
Gusts 2.0 mph

Today
High -- | Low -- °F
--% Chance of Precip.
Yesterday
High -- | Low -- °F
Precip. -- in
6:06 AM 7:13 PM
Waning Gibbous, 64% visible
Pressure 29.94 in
Visibility 8.0 miles
Clouds Few 7000 ft
Scattered Clouds 20000 ft
Dew Point 69 °F
Humidity 93%
Rainfall 0.07 in
Snow Depth Not available.
UV 0 out of 12
Pollen 8.00 out of 12
Air Quality Not available.
Flu Activity Not available.
METAR KPWM 040251Z 31003KT 8SM FEW070 SCT200 22/20 A2994 RMK AO2 SLP138 T02170200 53017
Pressure 29.94 in
Visibility 8.0 miles
Clouds Few 7000 ft
Scattered Clouds 20000 ft
Dew Point 69 °F
Humidity 93%
Rainfall 0.07 in
Snow Depth Not available.
UV 0 out of 12
Pollen 8.00 out of 12
Air Quality Not available.
Flu Activity Not available.
METAR KPWM 040251Z 31003KT 8SM FEW070 SCT200 22/20 A2994 RMK AO2 SLP138 T02170200 53017

10-Day Weather Forecast

×

Almanac

Astronomy

Sep. 03, 2015 Rise Set
Actual Time
Civil Twilight
Nautical Twilight
Astronomical Twilight
Moon
Length of Visible Light
Length of Day
Tomorrow will be .
, % of the Moon is Illuminated

Today's Extremes

State Highs State Lows

Community

WunderPhotos

Upload Photos

1,852,110 photos uploaded!

WunderBlogs® & News

Nearby

Air Quality

  Air Quality AQ Index Pollutant
Not available.

Snow Depth

Station Depth Elevation

Earthquake Activity

City Distance Mag. Time & Date
Minimum magnitude displayed is 2.5.

Coastal Water Temperatures

Place Temperature

Stations

Nearby Weather Stations

Station Location Temp. Windchill Dew Point Humidity Wind Precip. Elev Updated Type